Latest Coastal Weather Observations for Rottnest Island

IDW60701

Issued at 1:42 am WST Friday 1 July 2016 (issued every 10 minutes, with the page automatically refreshed every 10 minutes)

About coastal observations | Map of coastal stations | Coastal observations for WA | Marine services | Other Formats
Station Details ID: 009193 Name: ROTTNEST ISLAND Lat: -32.01 Lon: 115.50 Height: 43.1 m
Data from the previous 72 hours. | See also: Recent months at Rottnest Island
Date/Time
WST
Temp
°C
Wind Pressure Rain since
9am
mm
Weather Cloud Vis
km
Sea
Height
m
Swell
Dir  Spd
kts
Gust
kts
hPa Trend Height
m
Period
s
Dir
01/01:30am 13.0 ENE 7 8 1026.8 - 0.0 - - - - - - -
01/01:00am 13.1 ENE 8 9 1027.0 - 0.0 - - - - - - -
01/12:30am 13.2 ENE 8 9 1027.0 - 0.0 - - - - - - -
01/12:00am 13.8 E 7 7 1027.1 - 0.0 - - - - - - -
 
Date/Time
WST
Temp
°C
Wind Pressure Rain since
9am
mm
Weather Cloud Vis
km
Sea
Height
m
Swell
Dir  Spd
kts
Gust
kts
hPa Trend Height
m
Period
s
Dir
30/11:30pm 13.4 E 7 8 1027.0 - 0.0 - - - - - - -
30/11:00pm 13.9 E 7 8 1027.3 - 0.0 - - - - - - -
30/10:30pm 14.2 E 6 6 1027.5 - 0.0 - - - - - - -
30/10:00pm 13.9 E 6 7 1027.5 - 0.0 - - - - - - -
30/09:30pm 13.7 E 6 7 1027.4 - 0.0 - - - - - - -
30/09:00pm 13.9 E 6 7 1027.5 - 0.0 - - - - - - -
30/08:30pm 14.7 ESE 5 7 1027.3 - 0.0 - - - - - - -
30/08:00pm 14.7 ESE 4 6 1027.2 - 0.0 - - - - - - -
30/07:30pm 14.6 ESE 3 4 1027.0 - 0.0 - - - - - - -
30/07:00pm 14.5 SSE 3 4 1026.8 - 0.0 - - - - - - -
30/06:30pm 14.6 ESE 4 5 1026.2 - 0.0 - - - - - - -
30/06:00pm 14.5 S 5 6 1025.9 - 0.0 - - - - - - -
30/05:30pm 14.7 SE 3 5 1025.5 - 0.0 - - - - - - -
30/05:00pm 15.0 CALM 0 0 1025.3 - 0.0 - - - - - - -
30/04:30pm 15.6 S 1 5 1025.0 - 0.0 - - - - - - -
30/04:00pm 16.0 SE 4 7 1025.0 - 0.0 - - - - - - -
30/03:30pm 16.2 SE 5 7 1024.9 - 0.0 - - - - - - -
30/03:00pm 16.1 SE 5 8 1024.6 - 0.0 - - - - - - -
30/02:30pm 16.4 SSE 5 8 1024.7 - 0.0 - - - - - - -
30/02:00pm 16.4 SSE 7 9 1024.8 - 0.0 - - - - - - -
30/01:30pm 16.2 SSE 4 7 1025.0 - 0.0 - - - - - - -
30/01:00pm 16.4 SSE 5 9 1025.4 - 0.0 - - - - - - -
30/12:30pm 16.6 ESE 6 9 1025.6 - 0.0 - - - - - - -
30/12:00pm 16.1 ESE 7 11 1026.0 - 0.0 - - - - - - -
30/11:30am 16.0 E 8 11 1026.5 - 0.0 - - - - - - -
30/11:00am 16.0 ENE 8 11 1026.8 - 0.0 - - - - - - -
30/10:30am 15.7 ENE 8 11 1027.0 - 0.0 - - - - - - -
30/10:00am 15.4 ENE 9 11 1027.0 - 0.0 - - - - - - -
30/09:30am 15.0 ENE 8 11 1026.9 - 0.0 - - - - - - -
30/09:00am 14.4 ENE 7 11 1026.7 - 0.2 - - - - - - -
30/08:30am 13.7 E 8 10 1026.4 - 0.2 - - - - - - -
30/08:00am 12.7 E 8 9 1026.1 - 0.2 - - - - - - -
30/07:30am 12.4 E 8 9 1025.9 - 0.2 - - - - - - -
30/07:00am 12.0 E 8 10 1025.7 - 0.2 - - - - - - -
30/06:30am 11.9 E 7 9 1025.4 - 0.2 - - - - - - -
30/06:00am 12.4 E 8 10 1025.2 - 0.2 - - - - - - -
30/05:30am 12.9 E 8 11 1025.0 - 0.2 - - - - - - -
30/05:00am 12.7 E 7 9 1025.0 - 0.2 - - - - - - -
30/04:30am 13.1 ESE 7 10 1024.7 - 0.2 - - - - - - -
30/04:00am 13.4 ESE 7 8 1024.5 - 0.2 - - - - - - -
30/03:30am 13.6 ESE 8 10 1024.3 - 0.2 - - - - - - -
30/03:00am 13.5 ESE 7 9 1024.3 - 0.2 - - - - - - -
30/02:30am 13.8 ESE 7 10 1024.4 - 0.2 - - - - - - -
30/02:00am 14.0 ESE 6 8 1024.4 - 0.2 - - - - - - -
30/01:30am 14.0 ESE 6 8 1024.3 - 0.2 - - - - - - -
30/01:00am 14.3 ESE 7 9 1024.1 - 0.2 - - - - - - -
30/12:30am 14.7 SE 10 14 1024.1 - 0.2 - - - - - - -
30/12:00am 15.1 SE 13 16 1024.1 - 0.2 - - - - - - -
 
Date/Time
WST
Temp
°C
Wind Pressure Rain since
9am
mm
Weather Cloud Vis
km
Sea
Height
m
Swell
Dir  Spd
kts
Gust
kts
hPa Trend Height
m
Period
s
Dir
29/11:30pm 14.7 ESE 7 10 1023.9 - 0.2 - - - - - - -
29/11:00pm 15.0 SE 8 12 1023.9 - 0.2 - - - - - - -
29/10:30pm 15.6 SE 13 16 1023.7 - 0.0 - - - - - - -
29/10:00pm 15.4 SE 9 11 1023.5 - 0.0 - - - - - - -
29/09:30pm 15.9 SSE 11 15 1023.3 - 0.0 - - - - - - -
29/09:00pm 15.6 SSE 11 15 1023.1 - 0.0 - - - - - - -
29/08:30pm 15.9 SSE 12 17 1022.7 - 0.0 - - - - - - -
29/08:00pm 15.5 S 13 15 1022.6 - 0.0 - - - - - - -
29/07:30pm 15.6 S 15 18 1022.2 - 0.0 - - - - - - -
29/07:00pm 15.6 S 15 19 1021.8 - 0.0 - - - - - - -
29/06:51pm 15.5 S 15 18 1021.8 - 0.0 - - - - - - -
29/06:30pm 14.6 SW 2 8 1021.8 - 0.0 - - - - - - -
29/06:00pm 14.1 SSE 9 17 1021.4 - 0.0 - - - - - - -
29/05:30pm 15.8 SSW 11 15 1020.8 - 0.0 - - - - - - -
29/05:00pm 16.1 SSW 14 17 1020.4 - 0.0 - - - - - - -
29/04:30pm 16.4 SSW 11 15 1020.0 - 0.0 - - - - - - -
29/04:00pm 16.3 S 19 23 1019.6 - 0.0 - - - - - - -
29/03:30pm 17.4 SW 15 19 1019.4 - 0.0 - - - - - - -
29/03:00pm 17.7 SW 16 20 1019.0 - 0.0 - - - - - - -
29/02:30pm 17.0 SSW 15 21 1018.7 - 0.0 - - - - - - -
29/02:00pm 17.1 SSW 14 19 1018.5 - 0.0 - - - - - - -
29/01:30pm 18.2 SW 14 17 1018.5 - 0.0 - - - - - - -
29/01:00pm 17.7 SSW 13 16 1018.5 - 0.0 - - - - - - -
29/12:30pm 17.7 SW 14 17 1018.5 - 0.0 - - - - - - -
29/12:00pm 17.5 SW 14 17 1018.7 - 0.0 - - - - - - -
29/11:30am 17.4 SSW 15 17 1018.6 - 0.0 - - - - - - -
29/11:00am 18.0 SW 13 17 1018.7 - 0.0 - - - - - - -
29/10:30am 17.4 SW 15 21 1018.5 - 0.0 - - - - - - -
29/10:00am 17.3 SSW 14 18 1018.4 - 0.0 - - - - - - -
29/09:30am 16.5 SSW 15 20 1018.1 - 0.0 - - - - - - -
29/09:00am 15.9 SSW 16 21 1017.5 - 5.4 Recent precip. - - - - - -
29/08:30am 15.2 SSW 8 14 1017.3 - 5.4 - - - - - - -
29/08:00am 13.6 WNW 10 15 1017.1 - 5.2 - - - - - - -
29/07:39am 16.3 WSW 18 29 1016.5 - 4.0 - - - - - - -
29/07:30am 16.3 WSW 13 19 1016.3 - 4.0 - - - - - - -
29/07:00am 16.0 WSW 15 18 1016.0 - 4.0 - - - - - - -
29/06:30am 16.0 WSW 14 19 1015.4 - 4.0 - - - - - - -
29/06:00am 16.2 WSW 13 17 1015.0 - 4.0 - - - - - - -
29/05:30am 15.2 WSW 11 15 1014.6 - 4.0 - - - - - - -
29/05:09am 15.3 WSW 14 25 1014.5 - 4.0 - - - - - - -
29/05:00am 15.9 W 11 15 1014.3 - 4.0 - - - - - - -
29/04:30am 16.0 W 12 18 1014.2 - 4.0 - - - - - - -
29/04:00am 15.9 W 13 17 1014.0 - 4.0 - - - - - - -
29/03:30am 15.9 WSW 14 18 1014.0 - 4.0 - - - - - - -
29/03:00am 15.8 WSW 13 17 1013.9 - 4.0 - - - - - - -
29/02:30am 14.8 WSW 12 15 1013.8 - 4.0 - - - - - - -
29/02:12am 14.0 SW 20 30 1013.7 - 4.0 - - - - - - -
29/02:08am 14.5 WSW 19 30 1013.6 - 4.0 - - - - - - -
29/02:03am 14.9 W 13 30 1013.9 - 4.0 - - - - - - -
29/02:00am 15.6 W 9 12 1013.7 - 4.0 - - - - - - -
29/01:30am 15.0 WSW 12 17 1013.6 - 4.0 - - - - - - -
29/01:00am 16.0 WSW 9 12 1013.4 - 3.6 - - - - - - -
29/12:30am 15.9 WSW 11 13 1013.5 - 3.6 - - - - - - -
29/12:00am 16.1 WSW 9 12 1013.4 - 3.6 Recent precip. - - - - - -
 
Date/Time
WST
Temp
°C
Wind Pressure Rain since
9am
mm
Weather Cloud Vis
km
Sea
Height
m
Swell
Dir  Spd
kts
Gust
kts
hPa Trend Height
m
Period
s
Dir
28/11:30pm 16.8 WSW 10 13 1013.4 - 2.6 - - - - - - -
28/11:00pm 16.9 WSW 11 14 1013.3 - 2.6 - - - - - - -
28/10:30pm 17.2 W 10 13 1013.0 - 2.6 - - - - - - -
28/10:00pm 17.3 W 10 15 1012.9 - 2.6 - - - - - - -
28/09:30pm 17.4 W 11 16 1013.0 - 2.6 - - - - - - -
28/09:00pm 17.5 W 11 15 1013.0 - 2.6 - - - - - - -
28/08:30pm 17.5 W 11 17 1013.0 - 2.6 - - - - - - -
28/08:00pm 17.8 W 13 17 1012.8 - 2.6 - - - - - - -
28/07:30pm 17.4 W 11 16 1012.6 - 2.6 - - - - - - -
28/07:00pm 17.4 W 11 16 1012.3 - 2.6 - - - - - - -
28/06:30pm 17.4 W 10 14 1012.0 - 2.6 - - - - - - -
28/06:00pm 17.4 W 12 16 1011.8 - 2.6 - - - - - - -
28/05:30pm 17.0 W 12 15 1011.7 - 2.6 - - - - - - -
28/05:00pm 17.5 W 12 16 1011.4 - 2.6 - - - - - - -
28/04:30pm 17.5 WNW 12 15 1011.3 - 2.6 - - - - - - -
28/04:00pm 16.6 WNW 13 17 1011.0 - 2.6 - - - - - - -
28/03:30pm 18.0 W 13 17 1010.9 - 2.2 - - - - - - -
28/03:00pm 18.1 WNW 11 15 1010.9 - 2.2 - - - - - - -
28/02:30pm 17.5 WNW 14 17 1010.8 - 2.2 - - - - - - -
28/02:00pm 18.3 WNW 14 17 1010.7 - 2.2 - - - - - - -
28/01:30pm 17.2 WNW 18 21 1010.7 - 2.2 - - - - - - -
28/01:07pm 17.2 W 20 30 1010.7 - 2.2 - - - - - - -
28/01:00pm 17.7 WNW 21 27 1010.7 - 2.2 - - - - - - -
28/12:35pm 16.7 NW 20 31 1011.1 - 2.0 - - - - - - -
28/12:30pm 17.6 NW 19 23 1010.9 - 1.8 - - - - - - -
28/12:11pm 17.3 NW 22 33 1011.1 - 1.6 - - - - - - -
28/12:00pm 17.1 NNW 21 28 1011.1 - 1.6 Rain - - - - - -
28/11:39am 17.8 NW 22 32 1011.3 - 1.4 - - - - - - -
28/11:30am 18.5 NW 22 28 1011.7 - 1.4 - - - - - - -
28/11:00am 17.1 NNW 19 25 1011.7 - 1.4 - - - - - - -
28/10:31am 17.6 NNW 21 33 1011.7 - 0.4 - - - - - - -
28/10:30am 18.3 NNW 20 26 1011.8 - 0.0 - - - - - - -
28/10:00am 18.7 NNW 20 26 1011.7 - 0.0 - - - - - - -
28/09:30am 17.5 N 18 25 1011.9 - 0.0 - - - - - - -
28/09:00am 16.1 N 20 26 1011.5 - 5.8 - - - - - - -
28/08:30am 16.1 N 20 25 1011.6 - 5.8 - - - - - - -
28/08:00am 16.5 N 21 27 1011.6 - 5.8 - - - - - - -
28/07:30am 16.8 N 19 23 1011.6 - 5.8 - - - - - - -
28/07:00am 16.5 N 17 21 1011.6 - 5.8 - - - - - - -
28/06:30am 15.1 N 17 23 1011.4 - 5.8 - - - - - - -
28/06:00am 14.5 N 14 19 1011.7 - 5.8 Recent precip. - - - - - -
28/05:30am 14.2 N 16 23 1011.8 - 5.0 - - - - - - -
28/05:00am 15.0 N 15 21 1011.2 - 3.6 - - - - - - -
28/04:30am 14.6 N 15 26 1011.8 - 3.6 - - - - - - -
28/04:28am 14.4 N 16 26 1011.8 - 3.6 - - - - - - -
28/04:00am 15.6 N 18 23 1011.4 - 0.2 - - - - - - -
28/03:30am 14.9 N 17 24 1011.5 - 0.2 - - - - - - -
28/03:00am 15.6 N 19 23 1011.6 - 0.0 - - - - - - -
28/02:30am 15.4 NNE 15 21 1012.1 - 0.0 - - - - - - -
28/02:00am 15.5 N 14 19 1012.1 - 0.0 - - - - - - -

Other Formats:

Comma delimited format used in spreadsheet applications
http://www.bom.gov.au/fwo/IDW60701/IDW60701.94602.axf

JavaScript Object Notation format (JSON) in row-major order
http://www.bom.gov.au/fwo/IDW60701/IDW60701.94602.json